Terminal Aerodrome Forecast
Issued by NWS Cleveland, OH

Home | Current Version | Previous Version | Graphics & Text | Print | Product List | Glossary On
Versions: 1 2 3 4 5 6 7 8 9 10 11 12 13 14 15 16 17 18 19 20 21 22 23 24 25 26 27
214
FTUS41 KCLE 090913 AAC
TAFMFD
TAF AMD
KMFD 090913Z 0909/1006 27006KT P6SM OVC008
     FM091700 27010KT 6SM -SHSN OVC012
     FM092300 28010KT P6SM BKN020=

USA.gov is the U.S. government's official web portal to all federal, state and local government web resources and services.